Time;durP1;ratioP1;P1;durP2;ratioP2;P2;SDS_P1;SDS_P2;PMS_P1;PMS_P2;Temp;Humidity;BMP_temperature;BMP_pressure;BME280_temperature;BME280_humidity;BME280_pressure;Samples;Min_cycle;Max_cycle;Signal;HPM_P1;HPM_P2
2022/10/16 00:01:54;;;;;;;5.65;2.97;;;;;;;16.41;100.00;99519.25;12198656;19;20015;-86
2022/10/16 00:06:00;;;;;;;6.78;2.75;;;;;;;16.38;100.00;99503.16;12217940;19;20006;-84
2022/10/16 00:10:01;;;;;;;5.38;2.38;;;;;;;16.34;100.00;99499.34;12221268;19;20028;-86
2022/10/16 00:14:07;;;;;;;4.70;2.67;;;;;;;16.36;100.00;99514.59;12193588;19;20053;-83
2022/10/16 00:18:09;;;;;;;6.47;2.28;;;;;;;16.32;100.00;99519.09;12220298;19;20003;-85
2022/10/16 00:22:11;;;;;;;7.50;2.63;;;;;;;16.33;100.00;99525.47;12237763;19;20415;-81
2022/10/16 00:26:15;;;;;;;4.50;2.20;;;;;;;16.31;100.00;99527.72;12247936;19;20011;-80
2022/10/16 00:30:17;;;;;;;3.95;2.00;;;;;;;16.22;100.00;99510.03;12242446;19;20026;-85
2022/10/16 00:34:18;;;;;;;5.32;1.88;;;;;;;16.17;100.00;99522.84;12225312;19;20023;-85
2022/10/16 00:38:20;;;;;;;3.58;1.70;;;;;;;16.14;100.00;99517.88;12198135;19;20010;-82
2022/10/16 00:42:22;;;;;;;5.75;1.88;;;;;;;16.11;100.00;99528.75;12220494;19;20011;-85
2022/10/16 00:46:28;;;;;;;3.57;1.57;;;;;;;16.05;100.00;99513.25;12222000;19;20014;-85
2022/10/16 00:50:32;;;;;;;4.07;1.30;;;;;;;15.98;100.00;99519.19;12201647;19;20721;-85
2022/10/16 00:54:34;;;;;;;2.85;1.25;;;;;;;15.96;100.00;99526.97;12218330;19;20094;-85
2022/10/16 00:58:36;;;;;;;4.30;1.30;;;;;;;15.92;100.00;99534.25;12191002;19;20010;-84
2022/10/16 01:02:38;;;;;;;2.42;1.00;;;;;;;15.90;100.00;99539.25;12225688;19;20033;-84
2022/10/16 01:06:59;;;;;;;1.45;0.85;;;;;;;15.86;100.00;99539.00;12217479;19;20281;-82
2022/10/16 01:11:29;;;;;;;2.70;0.80;;;;;;;15.83;100.00;99542.38;12193891;19;20007;-83
2022/10/16 01:15:40;;;;;;;2.67;0.90;;;;;;;15.84;100.00;99537.63;12221422;19;20022;-84
2022/10/16 01:20:06;;;;;;;2.40;0.93;;;;;;;15.81;100.00;99536.28;12197548;19;20096;-83
2022/10/16 01:24:18;;;;;;;1.30;0.90;;;;;;;15.82;100.00;99537.91;12216586;19;20014;-84
2022/10/16 01:28:25;;;;;;;2.72;1.13;;;;;;;15.82;100.00;99548.19;12223142;19;20023;-85
2022/10/16 01:32:51;;;;;;;2.85;0.80;;;;;;;15.86;100.00;99543.75;12200478;19;20024;-83
2022/10/16 01:36:59;;;;;;;13.38;1.80;;;;;;;15.87;100.00;99535.09;12214678;19;20824;-84
2022/10/16 01:41:08;;;;;;;3.72;0.93;;;;;;;15.91;100.00;99530.63;12198644;19;20018;-83
2022/10/16 01:45:13;;;;;;;4.22;1.30;;;;;;;15.93;100.00;99539.50;12216479;19;20029;-84
2022/10/16 01:49:17;;;;;;;9.35;2.00;;;;;;;15.97;100.00;99550.03;12222640;19;20018;-84
2022/10/16 01:53:20;;;;;;;2.95;1.40;;;;;;;16.00;100.00;99563.31;12198885;19;20007;-84
2022/10/16 01:57:25;;;;;;;4.13;1.30;;;;;;;16.04;100.00;99572.75;12227298;19;20034;-82
2022/10/16 02:01:30;;;;;;;4.35;1.67;;;;;;;16.06;100.00;99573.28;12228113;19;20011;-83
2022/10/16 02:06:00;;;;;;;3.60;1.90;;;;;;;16.10;100.00;99571.59;12207628;19;20006;-84
2022/10/16 02:10:02;;;;;;;7.38;2.53;;;;;;;16.10;100.00;99571.59;12270050;19;20018;-83
2022/10/16 02:14:05;;;;;;;7.60;2.63;;;;;;;16.14;100.00;99562.34;12243336;19;19998;-82
2022/10/16 02:18:09;;;;;;;7.75;3.47;;;;;;;16.15;100.00;99563.19;12231015;19;20007;-83
2022/10/16 02:22:21;;;;;;;4.10;2.78;;;;;;;16.20;100.00;99559.53;12210106;19;20033;-84
2022/10/16 02:26:31;;;;;;;6.20;2.83;;;;;;;16.21;100.00;99548.13;12197178;19;20015;-84
2022/10/16 02:30:35;;;;;;;9.05;3.17;;;;;;;16.28;100.00;99545.81;12243087;19;20010;-84
2022/10/16 02:34:38;;;;;;;8.13;3.47;;;;;;;16.29;100.00;99553.03;12213429;19;20039;-85
2022/10/16 02:38:41;;;;;;;7.38;3.65;;;;;;;16.30;100.00;99551.94;12240080;19;20635;-85
2022/10/16 02:42:43;;;;;;;11.38;4.20;;;;;;;16.32;100.00;99552.44;12237368;19;20558;-85
2022/10/16 02:46:44;;;;;;;12.00;4.07;;;;;;;16.32;100.00;99560.78;12215887;19;20489;-83
2022/10/16 02:50:46;;;;;;;11.98;4.40;;;;;;;16.36;100.00;99566.63;12238320;19;20074;-83
2022/10/16 02:54:47;;;;;;;10.95;4.50;;;;;;;16.36;100.00;99567.44;12233891;19;20007;-85
2022/10/16 02:58:49;;;;;;;13.60;5.43;;;;;;;16.35;100.00;99562.97;12223668;19;20079;-84
2022/10/16 03:02:51;;;;;;;9.43;5.43;;;;;;;16.36;100.00;99575.78;12239369;19;20630;-84
2022/10/16 03:06:53;;;;;;;11.88;6.25;;;;;;;16.38;100.00;99579.06;12237102;19;20011;-84
2022/10/16 03:10:54;;;;;;;14.93;6.97;;;;;;;16.41;100.00;99583.22;12221553;19;20038;-84
2022/10/16 03:14:56;;;;;;;11.80;6.47;;;;;;;16.45;100.00;99577.91;12240733;19;20008;-85
2022/10/16 03:18:58;;;;;;;16.23;6.72;;;;;;;16.48;100.00;99582.88;12241324;19;20345;-84
2022/10/16 03:22:59;;;;;;;15.60;5.95;;;;;;;16.51;100.00;99590.63;12214724;19;20021;-83
2022/10/16 03:27:01;;;;;;;13.55;6.47;;;;;;;16.54;100.00;99585.31;12233570;19;20507;-84
2022/10/16 03:31:03;;;;;;;11.83;5.67;;;;;;;16.52;100.00;99589.53;12237552;19;20010;-85
2022/10/16 03:35:05;;;;;;;13.63;5.70;;;;;;;16.53;100.00;99585.59;12206719;19;20007;-84
2022/10/16 03:39:07;;;;;;;12.43;5.57;;;;;;;16.50;100.00;99586.19;12232079;19;20021;-84
2022/10/16 03:43:08;;;;;;;13.40;5.60;;;;;;;16.53;100.00;99582.81;12231047;19;20007;-84
2022/10/16 03:47:10;;;;;;;10.43;5.32;;;;;;;16.53;100.00;99583.66;12218236;19;20011;-85
2022/10/16 03:51:12;;;;;;;12.25;5.45;;;;;;;16.56;100.00;99599.75;12240326;19;20055;-84
2022/10/16 03:55:13;;;;;;;10.48;5.30;;;;;;;16.56;100.00;99596.13;12239044;19;20378;-84
2022/10/16 03:59:15;;;;;;;10.85;5.95;;;;;;;16.57;100.00;99595.03;12213487;19;20560;-82
2022/10/16 04:03:18;;;;;;;10.90;5.20;;;;;;;16.57;100.00;99608.94;12227820;19;20038;-84
2022/10/16 04:07:20;;;;;;;11.65;5.95;;;;;;;16.57;100.00;99620.91;12232899;19;20077;-81
2022/10/16 04:11:22;;;;;;;15.70;6.30;;;;;;;16.56;100.00;99590.56;12213461;19;20392;-85
2022/10/16 04:15:25;;;;;;;11.18;5.78;;;;;;;16.53;100.00;99593.94;12260537;19;20043;-83
2022/10/16 04:19:26;;;;;;;14.27;5.93;;;;;;;16.49;100.00;99601.22;12269238;19;20002;-82
2022/10/16 04:23:28;;;;;;;11.73;6.03;;;;;;;16.46;100.00;99596.25;12247591;19;20006;-83
2022/10/16 04:27:31;;;;;;;12.20;6.20;;;;;;;16.45;100.00;99614.06;12270715;19;20022;-83
2022/10/16 04:31:33;;;;;;;14.38;7.40;;;;;;;16.48;100.00;99610.69;12245335;19;20014;-83
2022/10/16 04:35:34;;;;;;;14.20;5.90;;;;;;;16.49;100.00;99612.34;12267237;19;20011;-83
2022/10/16 04:39:36;;;;;;;12.10;6.00;;;;;;;16.49;100.00;99593.72;12266938;19;20247;-83
2022/10/16 04:43:38;;;;;;;12.80;6.03;;;;;;;16.48;100.00;99605.13;12244138;19;20011;-84
2022/10/16 04:47:39;;;;;;;14.70;6.05;;;;;;;16.47;100.00;99609.03;12265740;19;20008;-83
2022/10/16 04:51:41;;;;;;;14.25;6.20;;;;;;;16.44;100.00;99598.50;12263779;19;20015;-83
2022/10/16 04:55:43;;;;;;;11.35;5.32;;;;;;;16.41;100.00;99606.28;12245230;19;21256;-81
2022/10/16 04:59:45;;;;;;;22.80;6.43;;;;;;;16.34;100.00;99603.03;12268328;19;20018;-81
2022/10/16 05:03:46;;;;;;;12.73;5.65;;;;;;;16.30;100.00;99618.66;12264212;19;19995;-81
2022/10/16 05:07:49;;;;;;;16.08;6.05;;;;;;;16.30;100.00;99604.75;12245813;19;20002;-81
2022/10/16 05:11:51;;;;;;;;;;;;;;;16.24;100.00;99605.94;12265083;19;20023;-81
2022/10/16 05:15:52;;;;;;;11.70;5.95;;;;;;;16.19;100.00;99592.06;12267231;19;19907;-81
2022/10/16 05:19:55;;;;;;;12.32;6.05;;;;;;;16.17;100.00;99613.75;12245249;19;19991;-81
2022/10/16 05:23:56;;;;;;;12.15;5.22;;;;;;;16.14;100.00;99606.84;12264604;19;20010;-81
2022/10/16 05:27:58;;;;;;;14.18;6.13;;;;;;;16.12;100.00;99603.53;12267805;19;20031;-81
2022/10/16 05:32:00;;;;;;;11.93;5.33;;;;;;;16.08;100.00;99612.72;12245257;19;20006;-80
2022/10/16 05:36:07;;;;;;;10.20;4.53;;;;;;;16.02;100.00;99608.34;12268501;19;20006;-82
2022/10/16 05:40:10;;;;;;;14.40;4.65;;;;;;;15.93;100.00;99610.91;12268363;19;20011;-82
2022/10/16 05:44:13;;;;;;;10.70;4.28;;;;;;;15.88;100.00;99630.41;12244124;19;20002;-82
2022/10/16 05:48:14;;;;;;;9.45;4.88;;;;;;;15.86;100.00;99633.47;12268316;19;20003;-82
2022/10/16 05:52:16;;;;;;;11.52;4.40;;;;;;;15.87;100.00;99618.47;12265478;19;19998;-81
2022/10/16 05:56:17;;;;;;;13.30;5.00;;;;;;;15.90;100.00;99634.53;12242464;19;20007;-82
2022/10/16 06:00:19;;;;;;;11.02;4.47;;;;;;;15.93;100.00;99645.09;12264837;19;20022;-82
2022/10/16 06:04:21;;;;;;;8.98;4.97;;;;;;;15.98;100.00;99657.31;12259154;19;20256;-82
2022/10/16 06:08:23;;;;;;;12.85;5.13;;;;;;;16.02;100.00;99658.38;12241262;19;20025;-82
2022/10/16 06:12:26;;;;;;;10.73;4.57;;;;;;;16.08;100.00;99657.22;12261566;19;20006;-82
2022/10/16 06:16:28;;;;;;;13.95;5.35;;;;;;;16.13;100.00;99665.50;12264824;19;20332;-82
2022/10/16 06:20:30;;;;;;;8.73;4.47;;;;;;;16.19;100.00;99675.47;12240593;19;20006;-82
2022/10/16 06:24:32;;;;;;;9.13;4.50;;;;;;;16.25;100.00;99665.13;12262092;19;20027;-81
2022/10/16 06:28:34;;;;;;;11.85;5.05;;;;;;;16.30;100.00;99662.28;12242703;19;20006;-82
2022/10/16 06:32:35;;;;;;;8.23;4.25;;;;;;;16.34;100.00;99674.50;12260986;19;20022;-82
2022/10/16 06:36:38;;;;;;;12.60;4.55;;;;;;;16.37;100.00;99658.06;12262029;19;20015;-81
2022/10/16 06:40:40;;;;;;;6.60;4.25;;;;;;;16.38;100.00;99667.22;12232077;19;20491;-83
2022/10/16 06:44:41;;;;;;;10.43;3.72;;;;;;;16.38;100.00;99670.84;12221435;19;20362;-83
2022/10/16 06:48:44;;;;;;;9.23;3.90;;;;;;;16.44;100.00;99665.25;12222785;19;20018;-83
2022/10/16 06:52:46;;;;;;;9.05;4.45;;;;;;;16.47;100.00;99681.34;12198504;19;20487;-83
2022/10/16 06:56:47;;;;;;;7.88;3.70;;;;;;;16.56;100.00;99699.06;12222231;19;20028;-84
2022/10/16 07:00:55;;;;;;;9.27;3.63;;;;;;;16.67;100.00;99702.59;12215931;19;19998;-83
2022/10/16 07:04:58;;;;;;;6.88;3.45;;;;;;;16.77;100.00;99694.97;12196618;19;20011;-83
2022/10/16 07:09:03;;;;;;;10.98;3.80;;;;;;;16.84;100.00;99691.88;12217144;19;20356;-82
2022/10/16 07:13:07;;;;;;;7.18;3.03;;;;;;;16.90;100.00;99701.00;12214540;19;20377;-82
2022/10/16 07:17:08;;;;;;;8.13;3.13;;;;;;;17.02;100.00;99709.78;12203796;19;20014;-83
2022/10/16 07:21:14;;;;;;;6.28;3.15;;;;;;;17.10;100.00;99723.03;12231448;19;20307;-83
2022/10/16 07:25:17;;;;;;;4.55;2.30;;;;;;;17.15;100.00;99720.19;12227359;19;20118;-83
2022/10/16 07:29:23;;;;;;;6.75;2.47;;;;;;;17.26;100.00;99732.88;12202972;19;20002;-83
2022/10/16 07:33:25;;;;;;;10.05;2.80;;;;;;;17.42;100.00;99738.25;12226622;19;20006;-82
2022/10/16 07:37:26;;;;;;;6.40;2.47;;;;;;;17.52;100.00;99741.75;12230183;19;20006;-82
2022/10/16 07:41:29;;;;;;;6.00;2.70;;;;;;;17.57;100.00;99746.44;12205954;19;20014;-82
2022/10/16 07:45:30;;;;;;;6.70;2.33;;;;;;;17.58;100.00;99750.91;12228575;19;20042;-82
2022/10/16 07:49:32;;;;;;;4.32;2.50;;;;;;;17.56;100.00;99750.34;12231703;19;20037;-81
2022/10/16 07:53:34;;;;;;;10.90;3.25;;;;;;;17.62;100.00;99757.50;12208698;19;20077;-82
2022/10/16 07:57:35;;;;;;;4.85;2.22;;;;;;;17.67;100.00;99760.25;12230324;19;20022;-82
2022/10/16 08:01:37;;;;;;;5.68;2.00;;;;;;;17.71;100.00;99755.72;12208756;19;20010;-82
2022/10/16 08:05:39;;;;;;;8.57;2.60;;;;;;;17.77;100.00;99767.63;12223726;19;20484;-82
2022/10/16 08:09:41;;;;;;;5.68;2.40;;;;;;;17.85;100.00;99768.97;12232606;19;20059;-82
2022/10/16 08:13:43;;;;;;;7.90;2.47;;;;;;;17.98;100.00;99774.63;12200420;19;20014;-82
2022/10/16 08:17:53;;;;;;;5.27;2.13;;;;;;;18.14;100.00;99777.19;12233423;19;20013;-83
2022/10/16 08:21:55;;;;;;;6.82;1.98;;;;;;;18.27;100.00;99779.25;12223060;19;20340;-83
2022/10/16 08:26:02;;;;;;;5.80;2.20;;;;;;;18.33;100.00;99789.19;12200938;19;20082;-84
2022/10/16 08:30:05;;;;;;;3.95;2.22;;;;;;;18.31;100.00;99812.94;12226087;19;20007;-83
2022/10/16 08:34:06;;;;;;;5.88;2.30;;;;;;;18.20;100.00;99828.97;12222900;19;20748;-83
2022/10/16 08:38:09;;;;;;;7.78;2.35;;;;;;;18.07;100.00;99864.00;12202495;19;20027;-87
2022/10/16 08:48:27;;;;;;;7.90;2.65;;;;;;;17.44;100.00;99850.22;12194808;19;20021;-86
2022/10/16 08:52:53;;;;;;;7.35;3.38;;;;;;;17.27;100.00;99861.81;12212071;19;20019;-86
2022/10/16 08:57:01;;;;;;;6.07;3.72;;;;;;;17.15;100.00;99864.16;12204990;19;20381;-85
2022/10/16 09:01:18;;;;;;;8.85;3.70;;;;;;;17.03;100.00;99870.09;12216828;19;20010;-84
2022/10/16 09:11:03;;;;;;;8.63;4.10;;;;;;;17.21;100.00;99866.59;12217268;19;20014;-86
2022/10/16 09:15:28;;;;;;;8.02;3.80;;;;;;;17.44;100.00;99878.09;12110384;19;2004831;-85
2022/10/16 09:19:37;;;;;;;7.68;3.55;;;;;;;17.76;100.00;99883.88;12215306;19;20014;-84
2022/10/16 09:23:39;;;;;;;8.50;3.15;;;;;;;18.05;100.00;99877.41;12193132;19;20713;-82
2022/10/16 09:27:44;;;;;;;5.45;2.92;;;;;;;18.21;100.00;99892.84;12255453;19;20031;-80
2022/10/16 09:31:46;;;;;;;7.70;3.55;;;;;;;18.37;100.00;99890.66;12249545;19;20019;-81
2022/10/16 09:35:53;;;;;;;5.05;3.47;;;;;;;18.73;100.00;99890.19;12245426;19;20010;-82
2022/10/16 09:39:55;;;;;;;8.80;2.83;;;;;;;18.90;100.00;99900.81;12203564;19;20086;-83
2022/10/16 09:44:01;;;;;;;5.78;2.60;;;;;;;19.07;100.00;99901.09;12178757;19;20010;-82
2022/10/16 09:48:19;;;;;;;3.78;2.50;;;;;;;19.43;100.00;99906.09;12196507;19;20015;-82
2022/10/16 09:52:21;;;;;;;4.55;2.63;;;;;;;19.80;100.00;99896.75;12205062;19;20062;-82
2022/10/16 09:56:41;;;;;;;4.18;2.67;;;;;;;19.89;100.00;99905.25;12199201;19;20014;-84
2022/10/16 10:00:51;;;;;;;3.63;2.30;;;;;;;19.90;100.00;99906.94;12113713;19;2004315;-83
2022/10/16 10:04:54;;;;;;;4.80;2.50;;;;;;;20.07;100.00;99902.66;12190022;19;20413;-84
2022/10/16 10:09:16;;;;;;;4.80;2.20;;;;;;;20.26;100.00;99906.19;12214308;19;20352;-83
2022/10/16 10:13:24;;;;;;;3.58;2.42;;;;;;;20.43;100.00;99911.97;12213329;19;20023;-83
2022/10/16 10:17:28;;;;;;;3.67;2.10;;;;;;;20.52;100.00;99914.03;12192411;19;20034;-83
2022/10/16 10:21:32;;;;;;;3.17;2.05;;;;;;;20.59;100.00;99925.69;12216388;19;20006;-84
2022/10/16 10:25:53;;;;;;;6.75;2.45;;;;;;;20.64;100.00;99911.53;12210809;19;20015;-84
2022/10/16 10:30:04;;;;;;;3.10;1.67;;;;;;;20.67;100.00;99913.72;12218126;19;20541;-82
2022/10/16 10:34:37;;;;;;;3.20;1.60;;;;;;;20.83;100.00;99915.03;12212865;19;20074;-83
2022/10/16 10:39:07;;;;;;;5.50;1.50;;;;;;;21.05;100.00;99916.19;12194470;19;20034;-83
2022/10/16 10:43:28;;;;;;;2.05;1.23;;;;;;;21.27;100.00;99918.19;12212642;19;20014;-82
2022/10/16 10:48:05;;;;;;;3.28;1.45;;;;;;;21.43;100.00;99918.66;12195892;19;20047;-81
2022/10/16 10:52:27;;;;;;;3.40;2.00;;;;;;;21.50;100.00;99916.22;12225809;19;20019;-80
2022/10/16 10:57:01;;;;;;;5.05;2.33;;;;;;;21.32;100.00;99907.66;12206951;19;20010;-80
2022/10/16 11:01:17;;;;;;;5.05;2.22;;;;;;;21.19;100.00;99902.13;12225868;19;20380;-80
2022/10/16 11:05:27;;;;;;;3.63;1.98;;;;;;;21.37;100.00;99896.34;12209108;19;20003;-80
2022/10/16 11:09:36;;;;;;;4.93;1.90;;;;;;;21.91;100.00;99901.09;12265377;19;20007;-80
2022/10/16 11:13:55;;;;;;;4.53;2.00;;;;;;;22.15;100.00;99906.31;12240777;19;20007;-79
2022/10/16 11:18:16;;;;;;;6.45;2.17;;;;;;;22.07;100.00;99907.91;12221153;19;20007;-78
2022/10/16 11:22:40;;;;;;;5.30;2.10;;;;;;;22.42;100.00;99899.63;12216731;19;20014;-78
2022/10/16 11:26:46;;;;;;;5.97;2.10;;;;;;;22.85;100.00;99907.31;12200412;19;20345;-78
2022/10/16 11:31:00;;;;;;;7.60;2.00;;;;;;;23.15;100.00;99908.31;12225051;19;20444;-80
2022/10/16 11:35:15;;;;;;;4.07;1.35;;;;;;;23.18;100.00;99916.09;12195130;19;20378;-80
2022/10/16 11:39:22;;;;;;;1.65;1.20;;;;;;;22.96;100.00;99912.31;12244599;19;20030;-79
2022/10/16 11:43:35;;;;;;;5.13;2.25;;;;;;;22.63;100.00;99911.06;12245721;19;20333;-80
2022/10/16 11:47:43;;;;;;;3.35;1.80;;;;;;;22.32;100.00;99917.63;12195653;19;20017;-80
2022/10/16 11:52:16;;;;;;;5.90;1.90;;;;;;;21.90;100.00;99913.47;12219166;19;20111;-80
2022/10/16 11:56:20;;;;;;;5.80;1.77;;;;;;;21.63;100.00;99904.09;12189114;19;20026;-81
2022/10/16 12:00:30;;;;;;;7.10;2.00;;;;;;;22.08;100.00;99899.19;12217673;19;20437;-80
2022/10/16 12:04:52;;;;;;;5.45;2.05;;;;;;;22.93;100.00;99893.28;12203431;19;20018;-80
2022/10/16 12:08:54;;;;;;;8.05;2.20;;;;;;;23.61;100.00;99885.06;12193414;19;20395;-80
2022/10/16 12:12:57;;;;;;;5.45;1.80;;;;;;;24.15;100.00;99892.19;12234652;19;20010;-79
2022/10/16 12:17:20;;;;;;;2.95;1.83;;;;;;;24.76;100.00;99884.22;12212873;19;20033;-80
2022/10/16 12:21:30;;;;;;;3.58;1.90;;;;;;;25.19;99.62;99894.31;12218684;19;20015;-80
2022/10/16 12:25:46;;;;;;;3.58;1.98;;;;;;;25.37;96.50;99890.19;12209056;19;20026;-80
2022/10/16 12:29:56;;;;;;;2.42;1.80;;;;;;;26.08;84.04;99886.19;12201842;19;20018;-80
2022/10/16 12:34:02;;;;;;;2.85;1.65;;;;;;;26.24;83.14;99900.47;12218829;19;20058;-80
2022/10/16 12:38:08;;;;;;;4.40;2.22;;;;;;;25.96;87.09;99899.50;12200272;19;20014;-80
2022/10/16 12:42:31;;;;;;;5.40;1.95;;;;;;;25.87;82.92;99897.59;12220240;19;20010;-80
2022/10/16 12:46:38;;;;;;;4.57;2.00;;;;;;;24.85;85.21;99899.06;12217453;19;20066;-80
2022/10/16 12:50:40;;;;;;;7.72;2.20;;;;;;;24.24;91.73;99904.22;12209851;19;20893;-80
2022/10/16 12:54:42;;;;;;;3.25;1.88;;;;;;;24.24;90.40;99907.03;12216621;19;20026;-80
2022/10/16 12:59:13;;;;;;;5.00;2.10;;;;;;;24.10;91.37;99908.09;12236967;19;20015;-80
2022/10/16 13:03:43;;;;;;;3.95;2.00;;;;;;;23.94;93.29;99900.56;12222447;19;20027;-80
2022/10/16 13:07:56;;;;;;;3.90;2.20;;;;;;;23.92;93.14;99900.09;12185936;19;20756;-81
2022/10/16 13:12:15;;;;;;;3.25;2.08;;;;;;;23.70;93.78;99903.94;12210038;19;20468;-80
2022/10/16 13:16:35;;;;;;;6.32;2.40;;;;;;;23.61;95.13;99913.19;12198097;19;20858;-81
2022/10/16 13:21:14;;;;;;;5.13;2.20;;;;;;;23.41;95.49;99913.94;12188337;19;20015;-81
2022/10/16 13:25:27;;;;;;;4.57;2.50;;;;;;;23.20;97.00;99920.22;12211630;19;20014;-81
2022/10/16 13:29:33;;;;;;;10.20;2.65;;;;;;;22.79;99.98;99908.63;12190909;19;20119;-80
2022/10/16 13:33:37;;;;;;;4.65;2.53;;;;;;;22.41;100.00;99906.41;12209861;19;20030;-80
2022/10/16 13:37:38;;;;;;;7.65;2.33;;;;;;;22.03;100.00;99915.34;12203076;19;20483;-80
2022/10/16 13:41:41;;;;;;;7.80;2.90;;;;;;;21.77;100.00;99916.06;12206153;19;20006;-80
2022/10/16 13:45:53;;;;;;;11.32;2.45;;;;;;;21.61;100.00;99923.22;12210993;19;20468;-79
2022/10/16 13:50:02;;;;;;;10.38;2.92;;;;;;;21.43;100.00;99929.88;12182926;19;20015;-79
2022/10/16 13:54:11;;;;;;;5.90;2.60;;;;;;;21.25;100.00;99929.72;12211266;19;20011;-79
2022/10/16 13:58:14;;;;;;;14.10;3.20;;;;;;;21.12;100.00;99916.59;12215636;19;20761;-80
2022/10/16 14:02:24;;;;;;;11.02;3.10;;;;;;;21.01;100.00;99917.97;12190938;19;20014;-80
2022/10/16 14:06:26;;;;;;;8.57;2.90;;;;;;;20.88;100.00;99920.53;12202189;19;20010;-80
2022/10/16 14:10:31;;;;;;;10.77;3.97;;;;;;;20.87;100.00;99921.66;12208734;19;20062;-79
2022/10/16 14:14:40;;;;;;;13.35;3.70;;;;;;;20.92;100.00;99918.72;12180044;19;20011;-79
2022/10/16 14:18:50;;;;;;;7.25;3.38;;;;;;;20.98;100.00;99915.81;12205438;19;20019;-80
2022/10/16 14:23:33;;;;;;;13.55;2.92;;;;;;;21.09;100.00;99909.66;12177365;19;20035;-80
2022/10/16 14:27:36;;;;;;;8.65;2.85;;;;;;;21.19;100.00;99905.75;12204520;19;20010;-81
2022/10/16 14:31:39;;;;;;;8.70;2.92;;;;;;;21.21;100.00;99897.88;12200927;19;20003;-80
2022/10/16 14:35:44;;;;;;;6.05;2.40;;;;;;;21.19;100.00;99894.56;12194374;19;20006;-79
2022/10/16 14:39:50;;;;;;;4.05;2.38;;;;;;;21.09;100.00;99906.00;12202089;19;20007;-81
2022/10/16 14:43:55;;;;;;;5.97;2.95;;;;;;;20.99;100.00;99903.47;12176795;19;20014;-80
2022/10/16 14:48:01;;;;;;;10.98;3.90;;;;;;;20.92;100.00;99910.31;12202540;19;20464;-80
2022/10/16 14:52:12;;;;;;;15.35;3.75;;;;;;;20.82;100.00;99906.94;12201538;19;20019;-79
2022/10/16 14:56:18;;;;;;;19.08;3.33;;;;;;;20.79;100.00;99899.16;12183149;19;20015;-80
2022/10/16 15:00:23;;;;;;;16.30;3.33;;;;;;;20.75;100.00;99904.56;12202465;19;20014;-80
2022/10/16 15:04:25;;;;;;;23.13;3.65;;;;;;;20.74;100.00;99900.13;12199173;19;20034;-80
2022/10/16 15:08:29;;;;;;;22.52;3.15;;;;;;;20.78;100.00;99901.13;12179463;19;20035;-80
2022/10/16 15:12:33;;;;;;;9.88;3.15;;;;;;;20.80;100.00;99901.66;12204265;19;20010;-80
2022/10/16 15:16:35;;;;;;;7.30;2.83;;;;;;;20.76;100.00;99903.41;12219751;19;20011;-80
2022/10/16 15:20:38;;;;;;;11.32;2.78;;;;;;;20.82;100.00;99910.59;12227986;19;20014;-80
2022/10/16 15:24:40;;;;;;;16.58;4.13;;;;;;;20.94;100.00;99915.63;12203964;19;20038;-80
2022/10/16 15:28:42;;;;;;;9.27;2.58;;;;;;;20.94;100.00;99913.66;12182068;19;20018;-81
2022/10/16 15:32:43;;;;;;;7.88;3.75;;;;;;;20.92;100.00;99918.72;12200115;19;20116;-80
2022/10/16 15:36:45;;;;;;;6.67;3.83;;;;;;;20.87;100.00;99920.81;12216448;19;20092;-81
2022/10/16 15:40:48;;;;;;;6.43;3.67;;;;;;;20.74;100.00;99927.31;12196900;19;20468;-81
2022/10/16 15:44:49;;;;;;;;;;;;;;;20.62;100.00;99925.88;12213913;19;20010;-80
2022/10/16 15:48:56;;;;;;;6.47;2.80;;;;;;;20.56;100.00;99943.09;12225125;19;19986;-81
2022/10/16 15:52:58;;;;;;;12.07;3.13;;;;;;;20.43;100.00;99927.94;12203052;19;20091;-82
2022/10/16 15:57:00;;;;;;;18.50;3.50;;;;;;;20.28;100.00;99931.88;12224931;19;20103;-80
2022/10/16 16:01:03;;;;;;;18.58;3.60;;;;;;;20.14;100.00;99937.50;12222492;19;20365;-80
2022/10/16 16:05:07;;;;;;;19.30;4.45;;;;;;;19.96;100.00;99941.22;12203065;19;20476;-80
2022/10/16 16:09:09;;;;;;;18.05;4.28;;;;;;;19.80;100.00;99938.69;12217658;19;20011;-80
2022/10/16 16:13:11;;;;;;;14.90;3.67;;;;;;;19.66;100.00;99935.06;12218122;19;20051;-80
2022/10/16 16:17:12;;;;;;;17.13;3.65;;;;;;;19.45;100.00;99934.53;12200985;19;20007;-79
2022/10/16 16:21:14;;;;;;;19.75;4.50;;;;;;;19.27;100.00;99939.03;12220672;19;20011;-81
2022/10/16 16:25:16;;;;;;;14.33;3.97;;;;;;;19.12;100.00;99942.91;12221105;19;20006;-80
2022/10/16 16:29:18;;;;;;;21.08;5.10;;;;;;;18.99;100.00;99952.06;12199665;19;20272;-80
2022/10/16 16:33:23;;;;;;;11.82;5.13;;;;;;;18.87;100.00;99949.72;12220875;19;20014;-81
2022/10/16 16:37:28;;;;;;;13.15;3.58;;;;;;;18.79;100.00;99944.81;12267685;19;20002;-80
2022/10/16 16:41:30;;;;;;;13.68;3.90;;;;;;;18.70;100.00;99949.38;12248307;19;20006;-81
2022/10/16 16:45:35;;;;;;;11.95;3.72;;;;;;;18.61;100.00;99954.78;12263888;19;20026;-80
2022/10/16 16:49:37;;;;;;;13.07;3.80;;;;;;;18.55;100.00;99953.19;12265119;19;20003;-80
2022/10/16 16:53:39;;;;;;;7.00;3.30;;;;;;;18.47;100.00;99956.66;12217300;19;20015;-81
2022/10/16 16:57:40;;;;;;;21.00;3.58;;;;;;;18.41;100.00;99964.28;12213494;19;20527;-81
2022/10/16 17:01:42;;;;;;;16.48;3.70;;;;;;;18.37;100.00;99959.59;12195328;19;20014;-80
2022/10/16 17:05:55;;;;;;;9.33;2.93;;;;;;;18.36;100.00;99966.31;12219732;19;20051;-81
2022/10/16 17:09:56;;;;;;;13.55;3.47;;;;;;;18.31;100.00;99958.00;12212242;19;20010;-80
2022/10/16 17:13:59;;;;;;;11.30;4.05;;;;;;;18.29;100.00;99966.63;12193466;19;20006;-81
2022/10/16 17:18:01;;;;;;;4.90;3.20;;;;;;;18.29;100.00;99965.81;12218501;19;20241;-80
2022/10/16 17:22:03;;;;;;;13.35;3.13;;;;;;;18.25;100.00;99973.94;12214895;19;20018;-80
2022/10/16 17:26:16;;;;;;;6.13;2.60;;;;;;;18.19;100.00;99973.19;12194669;19;20091;-80
2022/10/16 17:30:18;;;;;;;14.10;4.05;;;;;;;18.09;100.00;99973.31;12225252;19;20028;-79
2022/10/16 17:34:20;;;;;;;14.13;2.88;;;;;;;17.98;100.00;99982.91;12217499;19;20502;-79
2022/10/16 17:38:21;;;;;;;19.92;4.28;;;;;;;17.82;100.00;99982.25;12197944;19;20015;-79
2022/10/16 17:42:23;;;;;;;19.30;4.18;;;;;;;17.67;100.00;99983.19;12210730;19;20018;-79
2022/10/16 17:46:26;;;;;;;15.07;4.03;;;;;;;17.52;100.00;99994.47;12216864;19;20014;-79
2022/10/16 17:50:27;;;;;;;30.00;4.30;;;;;;;17.38;100.00;99997.06;12193197;19;20007;-79
2022/10/16 17:54:29;;;;;;;13.88;3.83;;;;;;;17.23;100.00;99989.66;12212668;19;20014;-79
2022/10/16 17:58:31;;;;;;;12.88;4.05;;;;;;;17.11;100.00;99996.72;12219342;19;20010;-80
2022/10/16 18:02:32;;;;;;;15.70;4.35;;;;;;;17.00;100.00;100001.50;12189731;19;20006;-79
2022/10/16 18:06:35;;;;;;;21.00;5.78;;;;;;;16.91;100.00;100003.25;12214839;19;20497;-79
2022/10/16 18:10:44;;;;;;;15.55;4.50;;;;;;;16.82;100.00;100014.97;12210350;19;20011;-80
2022/10/16 18:14:46;;;;;;;13.13;4.00;;;;;;;16.73;100.00;100013.88;12188425;19;20011;-79
2022/10/16 18:18:47;;;;;;;14.23;4.22;;;;;;;16.66;100.00;100021.72;12211019;19;20449;-80
2022/10/16 18:22:49;;;;;;;12.30;4.07;;;;;;;16.60;100.00;100020.06;12188493;19;20485;-79
2022/10/16 18:26:55;;;;;;;8.73;4.03;;;;;;;16.55;100.00;100014.53;12212607;19;20011;-79
2022/10/16 18:31:05;;;;;;;15.13;5.53;;;;;;;16.51;100.00;100019.81;12209950;19;20007;-80
2022/10/16 18:35:07;;;;;;;10.85;3.80;;;;;;;16.48;100.00;100022.31;12187856;19;20015;-80
2022/10/16 18:39:10;;;;;;;14.52;3.92;;;;;;;16.45;100.00;100022.88;12209847;19;20049;-79
2022/10/16 18:43:12;;;;;;;12.35;3.78;;;;;;;16.40;100.00;100021.81;12210542;19;20011;-80
2022/10/16 18:47:13;;;;;;;13.20;4.47;;;;;;;16.37;100.00;100027.94;12189528;19;20038;-79
2022/10/16 18:51:18;;;;;;;18.02;4.07;;;;;;;16.32;100.00;100018.75;12213827;19;20508;-79
2022/10/16 18:55:20;;;;;;;13.20;3.63;;;;;;;16.31;100.00;100026.28;12212117;19;20015;-79
2022/10/16 18:59:22;;;;;;;13.77;5.20;;;;;;;16.29;100.00;100022.13;12191303;19;20018;-79